Time;durP1;ratioP1;P1;durP2;ratioP2;P2;SDS_P1;SDS_P2;PMS_P1;PMS_P2;Temp;Humidity;BMP_temperature;BMP_pressure;BME280_temperature;BME280_humidity;BME280_pressure;Samples;Min_cycle;Max_cycle;Signal;HPM_P1;HPM_P2
2023/08/02 00:01:27;;;;;;;2.33;1.73;;;16.20;68.00;;;;;;5033696;28;20072;-72
2023/08/02 00:03:52;;;;;;;3.13;1.70;;;16.20;68.10;;;;;;5033584;28;20045;-72
2023/08/02 00:06:18;;;;;;;3.08;1.70;;;16.20;68.10;;;;;;5033825;28;20037;-72
2023/08/02 00:08:43;;;;;;;3.45;1.88;;;16.10;68.00;;;;;;5033718;28;20025;-72
2023/08/02 00:11:16;;;;;;;3.53;1.75;;;16.20;68.20;;;;;;5033638;28;20029;-72
2023/08/02 00:13:42;;;;;;;5.40;2.08;;;16.20;67.90;;;;;;5033608;28;20381;-72
2023/08/02 00:16:09;;;;;;;4.97;1.90;;;16.20;67.70;;;;;;5032924;28;20084;-72
2023/08/02 00:18:34;;;;;;;7.18;2.17;;;16.20;67.90;;;;;;5016032;28;20410;-72
2023/08/02 00:21:00;;;;;;;3.25;1.80;;;16.20;67.80;;;;;;5033496;28;20033;-72
2023/08/02 00:23:25;;;;;;;3.65;1.77;;;16.20;67.80;;;;;;5033471;28;20048;-72
2023/08/02 00:25:51;;;;;;;3.13;2.00;;;16.20;68.00;;;;;;5033456;28;20045;-72
2023/08/02 00:28:17;;;;;;;3.25;1.83;;;16.10;68.10;;;;;;5033353;28;20029;-73
2023/08/02 00:30:44;;;;;;;2.70;1.90;;;16.10;68.40;;;;;;5033316;28;20037;-72
2023/08/02 00:33:10;;;;;;;4.20;1.80;;;16.10;69.40;;;;;;5033311;28;20033;-72
2023/08/02 00:35:36;;;;;;;5.10;1.80;;;16.10;68.70;;;;;;5033252;28;20033;-72
2023/08/02 00:38:01;;;;;;;2.95;1.38;;;16.10;68.50;;;;;;5015518;28;20033;-72
2023/08/02 00:40:27;;;;;;;3.42;1.58;;;16.10;68.40;;;;;;5033081;28;20026;-72
2023/08/02 00:42:52;;;;;;;3.95;1.88;;;16.20;68.40;;;;;;5015470;28;20101;-72
2023/08/02 00:45:18;;;;;;;2.85;1.60;;;16.20;68.40;;;;;;5033039;28;20025;-72
2023/08/02 00:47:43;;;;;;;3.45;1.70;;;16.20;68.60;;;;;;5033055;28;20061;-73
2023/08/02 00:50:09;;;;;;;3.75;1.63;;;16.20;68.70;;;;;;5033203;28;20026;-72
2023/08/02 00:52:35;;;;;;;2.17;1.60;;;16.20;68.80;;;;;;5033104;28;20188;-72
2023/08/02 00:55:01;;;;;;;2.85;1.70;;;16.10;69.10;;;;;;5032982;28;20472;-72
2023/08/02 00:57:26;;;;;;;3.33;1.73;;;16.10;68.90;;;;;;5032891;28;20486;-72
2023/08/02 00:59:52;;;;;;;2.75;1.42;;;15.90;68.20;;;;;;5032637;28;20018;-71
2023/08/02 01:02:17;;;;;;;4.20;1.70;;;15.90;68.30;;;;;;5032819;28;20052;-73
2023/08/02 01:04:45;;;;;;;2.75;1.60;;;16.00;68.30;;;;;;5032737;28;20045;-72
2023/08/02 01:07:28;;;;;;;5.82;1.75;;;15.90;68.20;;;;;;5032834;28;20036;-71
2023/08/02 01:10:15;;;;;;;4.93;2.30;;;15.90;68.30;;;;;;5032793;28;20517;-72
2023/08/02 01:12:45;;;;;;;2.53;1.60;;;15.90;68.50;;;;;;5032298;28;20486;-71
2023/08/02 01:15:14;;;;;;;7.45;2.53;;;15.80;68.20;;;;;;5032762;28;20033;-73
2023/08/02 01:17:41;;;;;;;2.88;1.40;;;15.80;68.60;;;;;;5032722;28;20093;-72
2023/08/02 01:20:08;;;;;;;4.82;1.88;;;15.80;68.90;;;;;;5014930;28;20032;-72
2023/08/02 01:22:34;;;;;;;4.10;2.03;;;15.70;68.80;;;;;;5032922;28;20426;-72
2023/08/02 01:24:59;;;;;;;3.72;1.63;;;15.80;68.90;;;;;;5032719;28;20056;-72
2023/08/02 01:27:38;;;;;;;4.22;1.80;;;15.80;68.90;;;;;;5014959;28;20107;-73
2023/08/02 01:30:08;;;;;;;3.55;1.92;;;15.80;69.10;;;;;;5036142;28;20385;-72
2023/08/02 01:32:34;;;;;;;5.32;1.70;;;15.80;69.00;;;;;;5036653;28;20033;-72
2023/08/02 01:35:00;;;;;;;2.92;1.70;;;15.90;69.10;;;;;;5036588;28;20026;-72
2023/08/02 01:37:26;;;;;;;2.55;1.90;;;15.80;69.10;;;;;;5036513;28;20033;-73
2023/08/02 01:39:51;;;;;;;3.05;1.60;;;15.80;69.30;;;;;;5036579;28;20500;-72
2023/08/02 01:42:19;;;;;;;3.97;1.92;;;15.80;69.20;;;;;;5036409;28;20041;-72
2023/08/02 01:44:44;;;;;;;4.55;1.90;;;15.80;69.30;;;;;;5036398;28;20048;-72
2023/08/02 01:47:10;;;;;;;2.85;1.70;;;15.80;69.10;;;;;;5036495;28;20478;-74
2023/08/02 01:49:35;;;;;;;3.85;2.50;;;15.80;69.00;;;;;;5036401;28;20018;-72
2023/08/02 01:52:01;;;;;;;5.13;2.13;;;15.80;68.90;;;;;;5036322;28;20029;-72
2023/08/02 01:54:26;;;;;;;3.92;1.92;;;15.80;68.90;;;;;;5036327;28;20043;-73
2023/08/02 01:56:52;;;;;;;6.25;2.00;;;15.80;68.90;;;;;;5035993;28;20100;-72
2023/08/02 01:59:17;;;;;;;6.35;2.10;;;15.80;69.00;;;;;;5036266;28;20118;-72
2023/08/02 02:01:43;;;;;;;3.15;2.05;;;15.80;69.20;;;;;;5036096;28;20083;-72
2023/08/02 02:04:08;;;;;;;3.50;1.88;;;15.80;69.10;;;;;;5035904;28;20041;-73
2023/08/02 02:06:34;;;;;;;4.05;2.15;;;15.80;69.10;;;;;;5018597;28;20029;-72
2023/08/02 02:08:59;;;;;;;2.70;1.83;;;15.90;68.70;;;;;;5034704;28;20022;-73
2023/08/02 02:11:25;;;;;;;5.05;2.58;;;15.90;68.80;;;;;;5035993;28;20529;-72
2023/08/02 02:13:50;;;;;;;5.13;2.60;;;15.90;69.10;;;;;;5018187;28;20083;-72
2023/08/02 02:16:16;;;;;;;5.93;2.25;;;15.80;69.00;;;;;;5035853;28;20045;-72
2023/08/02 02:18:41;;;;;;;4.32;1.90;;;15.80;68.90;;;;;;5035962;28;20044;-73
2023/08/02 02:21:07;;;;;;;5.20;2.20;;;15.80;69.30;;;;;;5035658;28;20525;-72
2023/08/02 02:23:32;;;;;;;3.85;2.00;;;15.80;69.20;;;;;;5035600;28;20095;-72
2023/08/02 02:25:58;;;;;;;2.25;1.77;;;15.80;69.20;;;;;;5035478;28;20018;-72
2023/08/02 02:28:23;;;;;;;2.67;1.80;;;15.80;69.30;;;;;;5035693;28;20029;-73
2023/08/02 02:30:49;;;;;;;3.17;1.90;;;15.80;69.30;;;;;;5035555;28;20037;-73
2023/08/02 02:33:15;;;;;;;2.17;1.92;;;15.90;69.00;;;;;;5035621;28;20523;-72
2023/08/02 02:35:40;;;;;;;6.60;2.30;;;15.90;69.00;;;;;;5035474;28;20496;-72
2023/08/02 02:38:06;;;;;;;2.65;1.90;;;15.90;69.00;;;;;;5035424;28;20018;-72
2023/08/02 02:40:31;;;;;;;3.20;2.20;;;16.00;69.00;;;;;;5035029;28;20112;-73
2023/08/02 02:42:57;;;;;;;4.47;2.33;;;16.00;69.20;;;;;;5035419;28;20079;-72
2023/08/02 02:45:22;;;;;;;3.72;2.03;;;16.00;68.30;;;;;;5035533;28;20102;-72
2023/08/02 02:47:48;;;;;;;3.75;2.03;;;16.00;68.40;;;;;;5035191;28;20126;-73
2023/08/02 02:50:13;;;;;;;4.47;2.20;;;16.10;68.60;;;;;;5035320;28;20041;-72
2023/08/02 02:52:41;;;;;;;4.35;2.60;;;16.10;68.00;;;;;;5035166;28;20470;-72
2023/08/02 02:55:07;;;;;;;4.68;1.98;;;16.10;68.30;;;;;;5035253;28;20017;-73
2023/08/02 02:57:33;;;;;;;3.13;2.08;;;16.10;68.40;;;;;;5035149;28;20026;-72
2023/08/02 02:59:58;;;;;;;5.93;2.05;;;16.10;68.60;;;;;;5035204;28;20097;-73
2023/08/02 03:02:24;;;;;;;5.70;2.60;;;16.20;68.50;;;;;;5035011;28;20052;-73
2023/08/02 03:04:49;;;;;;;5.85;2.53;;;16.10;68.20;;;;;;5034766;28;20041;-72
2023/08/02 03:07:15;;;;;;;4.88;2.65;;;16.10;68.30;;;;;;5034985;28;20029;-72
2023/08/02 03:09:40;;;;;;;3.65;2.53;;;16.10;68.00;;;;;;5034890;28;20021;-72
2023/08/02 03:12:06;;;;;;;4.35;2.38;;;16.10;68.00;;;;;;5034826;28;20029;-72
2023/08/02 03:14:32;;;;;;;9.40;2.75;;;16.20;67.70;;;;;;5017042;28;20037;-73
2023/08/02 03:16:58;;;;;;;4.35;2.42;;;16.20;67.80;;;;;;5034709;28;20068;-72
2023/08/02 03:19:24;;;;;;;4.80;2.78;;;16.20;67.20;;;;;;5034592;28;20430;-72
2023/08/02 03:21:49;;;;;;;3.97;2.58;;;16.30;67.30;;;;;;5034418;28;20061;-73
2023/08/02 03:24:15;;;;;;;4.10;2.55;;;16.30;67.10;;;;;;5034514;28;20017;-73
2023/08/02 03:26:40;;;;;;;3.05;2.28;;;16.30;67.20;;;;;;5034548;28;20029;-73
2023/08/02 03:29:06;;;;;;;3.95;2.67;;;16.40;67.30;;;;;;5034628;28;20110;-72
2023/08/02 03:31:31;;;;;;;2.88;2.40;;;16.30;67.90;;;;;;5034429;28;20085;-73
2023/08/02 03:33:57;;;;;;;3.67;2.30;;;16.30;68.00;;;;;;5034176;28;20029;-72
2023/08/02 03:36:22;;;;;;;2.85;2.22;;;16.30;68.20;;;;;;5034321;28;20101;-72
2023/08/02 03:38:48;;;;;;;3.83;2.53;;;16.40;68.30;;;;;;5034298;28;20029;-72
2023/08/02 03:41:14;;;;;;;4.90;2.70;;;16.40;68.30;;;;;;5034139;28;20041;-73
2023/08/02 03:43:39;;;;;;;4.53;2.55;;;16.40;68.60;;;;;;5034236;28;20026;-72
2023/08/02 03:46:05;;;;;;;5.32;2.53;;;16.40;69.20;;;;;;5034276;28;20049;-72
2023/08/02 03:48:31;;;;;;;3.25;2.65;;;16.40;69.40;;;;;;5034083;28;20037;-71
2023/08/02 03:50:58;;;;;;;4.57;2.25;;;16.40;69.70;;;;;;5015564;28;20478;-72
2023/08/02 03:53:25;;;;;;;4.07;2.88;;;16.40;70.10;;;;;;5033872;28;20040;-71
2023/08/02 03:55:51;;;;;;;5.15;3.00;;;16.30;70.80;;;;;;5033850;28;20067;-71
2023/08/02 03:58:16;;;;;;;3.55;2.50;;;16.30;71.20;;;;;;5033925;28;20417;-72
2023/08/02 04:00:42;;;;;;;4.57;2.50;;;16.30;71.70;;;;;;5016096;28;20029;-72
2023/08/02 04:03:07;;;;;;;3.97;2.70;;;16.20;72.00;;;;;;5033883;28;20033;-72
2023/08/02 04:05:33;;;;;;;8.75;3.17;;;16.10;73.00;;;;;;5033592;28;20045;-71
2023/08/02 04:07:59;;;;;;;5.55;2.53;;;16.10;73.50;;;;;;5033826;28;20031;-71
2023/08/02 04:10:24;;;;;;;4.65;3.00;;;16.00;74.10;;;;;;5033636;28;20049;-73
2023/08/02 04:12:51;;;;;;;3.33;2.45;;;16.00;74.80;;;;;;5033617;28;20132;-71
2023/08/02 04:15:17;;;;;;;4.13;2.72;;;15.90;75.50;;;;;;5033669;28;20026;-72
2023/08/02 04:17:42;;;;;;;4.82;2.95;;;15.80;75.80;;;;;;5033596;28;20031;-72
2023/08/02 04:20:08;;;;;;;7.18;3.13;;;15.70;76.00;;;;;;5033419;28;20029;-71
2023/08/02 04:22:34;;;;;;;4.50;2.75;;;15.70;76.90;;;;;;5015811;28;20080;-71
2023/08/02 04:24:59;;;;;;;5.47;3.13;;;15.60;77.20;;;;;;5033530;28;20017;-71
2023/08/02 04:27:25;;;;;;;4.70;2.90;;;15.60;77.90;;;;;;5033460;28;20029;-72
2023/08/02 04:29:50;;;;;;;7.22;3.35;;;15.50;77.90;;;;;;5033308;28;20029;-72
2023/08/02 04:32:16;;;;;;;5.20;3.28;;;15.50;78.40;;;;;;5033396;28;20025;-72
2023/08/02 04:34:41;;;;;;;8.70;3.53;;;15.40;78.90;;;;;;5033300;28;20025;-73
2023/08/02 04:37:07;;;;;;;6.05;3.70;;;15.30;79.10;;;;;;5033396;28;20017;-72
2023/08/02 04:39:32;;;;;;;4.38;3.22;;;15.30;80.30;;;;;;5033386;28;20482;-73
2023/08/02 04:42:01;;;;;;;6.50;3.30;;;15.30;80.20;;;;;;5033165;28;20037;-72
2023/08/02 04:44:27;;;;;;;6.22;3.00;;;15.20;80.40;;;;;;5033047;28;20542;-72
2023/08/02 04:46:52;;;;;;;5.20;3.33;;;15.20;80.50;;;;;;5033399;28;20127;-72
2023/08/02 04:49:18;;;;;;;8.90;3.65;;;15.20;80.80;;;;;;5033105;28;20865;-72
2023/08/02 04:51:44;;;;;;;6.13;3.50;;;15.20;80.80;;;;;;5033085;28;20041;-72
2023/08/02 04:54:09;;;;;;;5.63;3.50;;;15.20;81.30;;;;;;5033213;28;20028;-72
2023/08/02 04:56:35;;;;;;;7.40;3.65;;;15.20;80.70;;;;;;5033149;28;20485;-72
2023/08/02 04:59:00;;;;;;;5.53;3.55;;;15.20;80.60;;;;;;5033010;28;20029;-74
2023/08/02 05:01:26;;;;;;;4.22;3.40;;;15.10;81.10;;;;;;5032910;28;20127;-73
2023/08/02 05:03:52;;;;;;;6.57;3.72;;;15.10;81.00;;;;;;5015214;28;20042;-72
2023/08/02 05:06:18;;;;;;;10.00;4.10;;;15.10;81.30;;;;;;5035200;28;20068;-72
2023/08/02 05:08:43;;;;;;;7.35;4.97;;;15.10;81.20;;;;;;5033013;28;20061;-73
2023/08/02 05:11:09;;;;;;;6.40;3.88;;;15.00;81.10;;;;;;5032375;28;20028;-72
2023/08/02 05:13:35;;;;;;;8.02;4.85;;;14.90;81.90;;;;;;5032481;28;20033;-73
2023/08/02 05:16:01;;;;;;;6.47;5.05;;;14.90;81.90;;;;;;5032799;28;20025;-73
2023/08/02 05:18:27;;;;;;;9.30;6.20;;;14.80;82.20;;;;;;5032823;28;20034;-72
2023/08/02 05:20:53;;;;;;;8.77;5.80;;;14.80;82.60;;;;;;5032732;28;20529;-72
2023/08/02 05:23:19;;;;;;;9.25;6.65;;;14.70;82.30;;;;;;5032754;28;20094;-72
2023/08/02 05:25:44;;;;;;;9.68;6.65;;;14.80;82.50;;;;;;5032820;28;20029;-72
2023/08/02 05:28:10;;;;;;;8.85;7.45;;;14.70;82.80;;;;;;5032549;28;20021;-72
2023/08/02 05:30:37;;;;;;;10.98;7.70;;;14.70;83.40;;;;;;5032429;28;20029;-72
2023/08/02 05:33:03;;;;;;;7.50;6.75;;;14.80;83.50;;;;;;5014883;28;20033;-73
2023/08/02 05:35:30;;;;;;;9.05;7.38;;;14.70;83.60;;;;;;5032591;28;20029;-72
2023/08/02 05:37:56;;;;;;;9.05;7.30;;;14.70;83.40;;;;;;5032709;28;20018;-72
2023/08/02 05:40:22;;;;;;;7.30;6.20;;;14.80;83.60;;;;;;5032432;28;20049;-73
2023/08/02 05:42:47;;;;;;;9.00;7.45;;;14.80;83.90;;;;;;5032595;28;20026;-72
2023/08/02 05:45:13;;;;;;;8.80;6.70;;;14.90;83.60;;;;;;5032525;28;20389;-72
2023/08/02 05:47:39;;;;;;;9.35;7.13;;;14.90;84.10;;;;;;5032676;28;20486;-72
2023/08/02 05:50:05;;;;;;;7.28;5.50;;;15.00;83.90;;;;;;5032425;28;20032;-73
2023/08/02 05:52:30;;;;;;;5.57;4.82;;;15.00;83.40;;;;;;5032437;28;20389;-72
2023/08/02 05:54:56;;;;;;;6.13;4.80;;;15.20;83.10;;;;;;5032264;28;20087;-73
2023/08/02 05:57:21;;;;;;;8.05;5.75;;;15.40;81.40;;;;;;5032321;28;20017;-72
2023/08/02 05:59:50;;;;;;;8.07;5.75;;;15.50;82.10;;;;;;5032409;28;20029;-72
2023/08/02 06:02:16;;;;;;;7.78;5.72;;;15.60;81.60;;;;;;5033501;28;20033;-72
2023/08/02 06:04:45;;;;;;;6.88;5.95;;;15.70;81.50;;;;;;5032145;28;20096;-72
2023/08/02 06:07:11;;;;;;;7.57;6.35;;;15.70;81.30;;;;;;5032398;28;20518;-72
2023/08/02 06:09:37;;;;;;;11.07;6.72;;;15.70;81.40;;;;;;5032336;28;20061;-71
2023/08/02 06:12:02;;;;;;;6.32;5.32;;;15.70;81.00;;;;;;5032364;28;20482;-71
2023/08/02 06:14:28;;;;;;;6.68;5.30;;;15.70;81.30;;;;;;5032930;28;20109;-71
2023/08/02 06:16:54;;;;;;;8.57;6.25;;;15.80;81.40;;;;;;5035820;28;20025;-71
2023/08/02 06:19:19;;;;;;;7.15;5.78;;;15.80;81.30;;;;;;5035722;28;20096;-73
2023/08/02 06:21:45;;;;;;;5.97;4.82;;;15.80;81.30;;;;;;5035671;28;20037;-73
2023/08/02 06:24:10;;;;;;;6.45;5.13;;;15.90;81.60;;;;;;5035765;28;20152;-71
2023/08/02 06:26:36;;;;;;;10.55;4.85;;;15.90;81.50;;;;;;5035832;28;20025;-72
2023/08/02 06:29:01;;;;;;;5.07;4.20;;;15.90;81.60;;;;;;5035491;28;20060;-72
2023/08/02 06:31:27;;;;;;;5.53;3.95;;;15.90;81.00;;;;;;5037099;28;20029;-71
2023/08/02 06:33:52;;;;;;;3.45;3.15;;;16.00;81.70;;;;;;5035268;28;20370;-72
2023/08/02 06:36:19;;;;;;;3.70;3.05;;;16.00;82.30;;;;;;5017990;28;20033;-72
2023/08/02 06:38:46;;;;;;;4.70;3.50;;;16.10;81.10;;;;;;5035634;28;20068;-72
2023/08/02 06:41:12;;;;;;;4.10;2.90;;;16.20;81.10;;;;;;5035278;28;20041;-71
2023/08/02 06:43:37;;;;;;;3.53;2.80;;;16.20;80.20;;;;;;5033005;28;20023;-71
2023/08/02 06:46:03;;;;;;;3.70;2.90;;;16.30;80.80;;;;;;5015413;28;20112;-71
2023/08/02 06:48:28;;;;;;;5.15;3.63;;;16.30;80.40;;;;;;5015249;28;20079;-72
2023/08/02 06:50:54;;;;;;;4.13;3.35;;;16.30;81.40;;;;;;5015515;28;20049;-72
2023/08/02 06:53:21;;;;;;;3.08;2.60;;;16.40;80.70;;;;;;5015481;28;20037;-72
2023/08/02 06:55:46;;;;;;;4.47;3.20;;;16.40;80.20;;;;;;5015123;28;20497;-74
2023/08/02 06:58:12;;;;;;;4.93;3.13;;;16.50;80.70;;;;;;5015112;28;20022;-73
2023/08/02 07:00:39;;;;;;;3.25;2.92;;;16.50;80.50;;;;;;5015154;28;20038;-73
2023/08/02 07:03:05;;;;;;;4.25;3.42;;;16.50;81.20;;;;;;5015010;28;20474;-73
2023/08/02 07:05:31;;;;;;;4.20;3.20;;;16.50;80.60;;;;;;5014800;28;20121;-72
2023/08/02 07:07:58;;;;;;;4.57;3.65;;;16.50;80.40;;;;;;5014813;28;20055;-73
2023/08/02 07:10:24;;;;;;;4.07;3.20;;;16.50;80.80;;;;;;5014736;28;20034;-73
2023/08/02 07:12:50;;;;;;;4.82;3.50;;;16.50;80.50;;;;;;5014724;28;20040;-73
2023/08/02 07:15:17;;;;;;;4.60;3.05;;;16.50;80.40;;;;;;5014834;28;20026;-73
2023/08/02 07:17:44;;;;;;;4.53;3.58;;;16.40;80.40;;;;;;5014714;28;20029;-73
2023/08/02 07:20:10;;;;;;;3.78;3.33;;;16.40;80.40;;;;;;5014838;28;20022;-73
2023/08/02 07:22:36;;;;;;;4.10;3.63;;;16.40;81.10;;;;;;5014669;28;20045;-73
2023/08/02 07:25:02;;;;;;;6.28;3.67;;;16.40;81.10;;;;;;5014756;28;20026;-73
2023/08/02 07:27:27;;;;;;;3.63;3.13;;;16.40;80.60;;;;;;5013201;28;20116;-73
2023/08/02 07:29:53;;;;;;;3.67;3.00;;;16.40;81.00;;;;;;5014700;28;20026;-73
2023/08/02 07:32:19;;;;;;;4.55;3.20;;;16.40;82.40;;;;;;5014502;28;20034;-72
2023/08/02 07:34:44;;;;;;;4.10;3.13;;;16.20;82.00;;;;;;5014507;28;20022;-73
2023/08/02 07:37:10;;;;;;;3.50;3.20;;;16.30;82.70;;;;;;5014456;28;20097;-73
2023/08/02 07:39:38;;;;;;;3.83;3.00;;;16.20;82.30;;;;;;5014431;28;20022;-74
2023/08/02 07:42:04;;;;;;;3.33;3.00;;;16.20;81.70;;;;;;5014304;28;20040;-72
2023/08/02 07:44:29;;;;;;;3.33;3.03;;;16.20;82.30;;;;;;5014443;28;20121;-72
2023/08/02 07:46:55;;;;;;;4.03;3.20;;;16.10;83.80;;;;;;5014431;28;20029;-73
2023/08/02 07:49:20;;;;;;;4.82;3.47;;;16.20;83.60;;;;;;5014235;28;20101;-72
2023/08/02 07:51:46;;;;;;;4.00;3.60;;;16.10;82.80;;;;;;5014216;28;20057;-72
2023/08/02 07:54:12;;;;;;;3.20;2.85;;;16.10;83.40;;;;;;4998058;28;20022;-71
2023/08/02 07:56:37;;;;;;;4.60;3.60;;;16.10;83.60;;;;;;5016540;28;20026;-72
2023/08/02 07:59:03;;;;;;;4.38;3.97;;;16.10;84.60;;;;;;5014265;28;20471;-72
2023/08/02 08:01:28;;;;;;;3.67;3.35;;;16.10;83.90;;;;;;4996166;28;20120;-72
2023/08/02 08:03:54;;;;;;;6.03;3.70;;;16.10;84.20;;;;;;5013890;28;20038;-73
2023/08/02 08:06:20;;;;;;;4.88;3.75;;;16.10;84.40;;;;;;4996274;28;20506;-73
2023/08/02 08:08:46;;;;;;;5.78;4.45;;;16.10;84.10;;;;;;5013759;28;20046;-71
2023/08/02 08:11:12;;;;;;;4.80;3.75;;;16.10;84.30;;;;;;5021044;28;20123;-71
2023/08/02 08:13:38;;;;;;;5.25;4.20;;;16.20;83.40;;;;;;5013752;28;20030;-72
2023/08/02 08:16:04;;;;;;;5.95;4.07;;;16.30;83.00;;;;;;5013937;28;20033;-72
2023/08/02 08:18:33;;;;;;;5.68;4.32;;;16.40;82.80;;;;;;5013846;28;20517;-73
2023/08/02 08:21:01;;;;;;;6.07;5.00;;;16.50;82.70;;;;;;5013744;28;20049;-72
2023/08/02 08:23:27;;;;;;;6.03;3.72;;;16.60;82.90;;;;;;4996115;28;20053;-71
2023/08/02 08:25:53;;;;;;;6.45;4.50;;;16.80;81.60;;;;;;5013246;28;20029;-71
2023/08/02 08:28:18;;;;;;;7.97;4.97;;;17.00;80.90;;;;;;5013039;28;20022;-72
2023/08/02 08:30:44;;;;;;;4.40;4.00;;;17.00;81.50;;;;;;5013491;28;20042;-72
2023/08/02 08:33:11;;;;;;;5.63;4.43;;;17.10;81.10;;;;;;5013415;28;20053;-72
2023/08/02 08:35:36;;;;;;;4.93;4.00;;;17.20;80.50;;;;;;4995866;28;20088;-73
2023/08/02 08:38:03;;;;;;;5.85;4.30;;;17.20;80.00;;;;;;5013161;28;20418;-72
2023/08/02 08:40:29;;;;;;;4.60;4.20;;;17.30;79.70;;;;;;5013174;28;20029;-72
2023/08/02 08:42:56;;;;;;;7.10;4.68;;;17.40;79.20;;;;;;5013287;28;20041;-72
2023/08/02 08:45:23;;;;;;;7.05;4.43;;;17.40;78.50;;;;;;5013249;28;20022;-72
2023/08/02 08:47:50;;;;;;;6.88;4.47;;;17.60;78.70;;;;;;5013182;28;20034;-72
2023/08/02 08:50:17;;;;;;;5.63;4.53;;;17.60;78.30;;;;;;5013377;28;20050;-73
2023/08/02 08:52:46;;;;;;;5.68;4.07;;;17.60;77.90;;;;;;5013202;28;20478;-73
2023/08/02 08:55:14;;;;;;;6.25;4.28;;;17.70;78.10;;;;;;5013431;28;20072;-72
2023/08/02 08:57:40;;;;;;;5.07;4.57;;;17.70;77.50;;;;;;5012990;28;20402;-72
2023/08/02 09:00:08;;;;;;;5.30;4.80;;;17.70;78.00;;;;;;5013288;28;20025;-72
2023/08/02 09:02:33;;;;;;;7.53;5.25;;;17.90;77.40;;;;;;5013071;28;20045;-72
2023/08/02 09:05:01;;;;;;;5.55;4.30;;;18.10;78.50;;;;;;4995304;28;20041;-72
2023/08/02 09:07:27;;;;;;;4.65;4.13;;;18.30;77.50;;;;;;5012763;28;20042;-73
2023/08/02 09:09:52;;;;;;;6.78;4.25;;;18.50;76.20;;;;;;5012790;28;20052;-72
2023/08/02 09:12:18;;;;;;;5.45;4.05;;;18.60;75.70;;;;;;5013060;28;20018;-72
2023/08/02 09:15:07;;;;;;;6.72;4.70;;;18.80;75.00;;;;;;5012975;28;20049;-72
2023/08/02 09:17:49;;;;;;;5.50;3.70;;;18.90;74.60;;;;;;4995812;28;20395;-72
2023/08/02 09:20:15;;;;;;;5.30;4.03;;;19.20;74.30;;;;;;5008275;28;20037;-73
2023/08/02 09:22:41;;;;;;;6.20;3.90;;;19.40;74.70;;;;;;5011862;28;20038;-73
2023/08/02 09:25:08;;;;;;;6.97;4.30;;;19.60;73.70;;;;;;5012156;28;20022;-72
2023/08/02 09:27:34;;;;;;;4.35;3.88;;;19.70;71.90;;;;;;4994499;28;20057;-75
2023/08/02 09:29:59;;;;;;;9.35;4.50;;;19.80;73.20;;;;;;4994508;28;20088;-73
2023/08/02 09:32:25;;;;;;;3.90;3.50;;;19.90;71.10;;;;;;5012778;28;20030;-72
2023/08/02 09:34:57;;;;;;;4.95;3.30;;;19.80;70.80;;;;;;5012079;28;20046;-74
2023/08/02 09:37:34;;;;;;;4.90;4.25;;;19.90;70.30;;;;;;5012537;28;20479;-72
2023/08/02 09:40:00;;;;;;;6.95;3.58;;;19.90;71.10;;;;;;5012658;28;20026;-72
2023/08/02 09:42:27;;;;;;;4.28;3.45;;;20.00;70.80;;;;;;5012499;28;20085;-73
2023/08/02 09:44:58;;;;;;;5.90;3.47;;;20.20;71.30;;;;;;5012682;28;20018;-72
2023/08/02 09:47:29;;;;;;;5.93;3.90;;;20.50;71.60;;;;;;5012537;28;20061;-73
2023/08/02 09:50:21;;;;;;;3.63;3.15;;;20.80;69.10;;;;;;5019252;28;20029;-73
2023/08/02 09:52:47;;;;;;;3.85;3.20;;;20.80;67.70;;;;;;5012977;28;20042;-73
2023/08/02 09:55:12;;;;;;;4.07;3.03;;;21.00;67.90;;;;;;5016562;28;20034;-72
2023/08/02 09:57:45;;;;;;;4.95;3.28;;;21.10;67.10;;;;;;5016361;28;20069;-73
2023/08/02 10:00:11;;;;;;;4.65;3.30;;;21.00;68.20;;;;;;5016283;28;20121;-72
2023/08/02 10:02:38;;;;;;;4.05;3.10;;;21.10;66.70;;;;;;5015831;28;20137;-72
2023/08/02 10:05:07;;;;;;;5.28;3.15;;;21.30;66.70;;;;;;5028734;28;20077;-73
2023/08/02 10:07:37;;;;;;;3.35;2.80;;;21.60;66.10;;;;;;5035932;28;20087;-72
2023/08/02 10:10:29;;;;;;;3.72;3.30;;;21.80;65.30;;;;;;5035229;28;20025;-73
2023/08/02 10:13:21;;;;;;;4.55;3.22;;;22.10;64.40;;;;;;5027228;28;20033;-72
2023/08/02 10:15:51;;;;;;;5.10;3.75;;;22.20;63.60;;;;;;5035794;28;20030;-73
2023/08/02 10:18:17;;;;;;;4.13;3.58;;;22.10;64.70;;;;;;5035634;28;20458;-72
2023/08/02 10:20:44;;;;;;;5.80;3.42;;;22.30;63.00;;;;;;5035463;28;20041;-72
2023/08/02 10:23:10;;;;;;;7.28;4.03;;;22.50;62.70;;;;;;5035651;28;20025;-72
2023/08/02 10:25:35;;;;;;;5.32;3.17;;;22.40;62.50;;;;;;5035393;28;20362;-72
2023/08/02 10:28:02;;;;;;;5.40;3.25;;;22.20;62.70;;;;;;5035474;28;20060;-74
2023/08/02 10:30:29;;;;;;;6.40;3.22;;;22.30;64.10;;;;;;5035316;28;20026;-71
2023/08/02 10:33:20;;;;;;;3.50;3.20;;;22.40;63.60;;;;;;5035049;28;20120;-71
2023/08/02 10:35:56;;;;;;;5.35;3.30;;;22.50;62.20;;;;;;5032080;28;20105;-71
2023/08/02 10:38:47;;;;;;;5.55;3.22;;;22.70;61.90;;;;;;5024308;28;20025;-71
2023/08/02 10:41:17;;;;;;;5.60;3.53;;;22.70;61.90;;;;;;5025308;28;20535;-72
2023/08/02 10:43:54;;;;;;;4.80;3.28;;;22.80;61.60;;;;;;5024057;28;20026;-71
2023/08/02 10:46:28;;;;;;;4.60;3.38;;;23.10;61.70;;;;;;5015233;28;20029;-72
2023/08/02 10:48:55;;;;;;;4.90;3.20;;;23.10;60.60;;;;;;5015297;28;20470;-72
2023/08/02 10:51:27;;;;;;;4.13;3.35;;;23.10;60.90;;;;;;5015186;28;20392;-72
2023/08/02 10:54:19;;;;;;;5.15;3.72;;;23.20;59.80;;;;;;5015170;28;20022;-71
2023/08/02 10:56:51;;;;;;;4.25;3.13;;;23.10;60.20;;;;;;5025278;28;20371;-72
2023/08/02 10:59:23;;;;;;;4.50;3.08;;;23.10;60.90;;;;;;5024056;28;20544;-72
2023/08/02 11:01:58;;;;;;;4.35;3.63;;;23.10;61.00;;;;;;5012864;28;20044;-72
2023/08/02 11:04:25;;;;;;;;;;;23.20;60.10;;;;;;5012661;28;20044;-72
2023/08/02 11:06:51;;;;;;;4.60;3.50;;;23.30;60.50;;;;;;5023149;28;19955;-72
2023/08/02 11:09:16;;;;;;;4.72;3.45;;;23.50;60.10;;;;;;5024567;28;20501;-78
2023/08/02 11:11:42;;;;;;;4.55;3.30;;;23.70;59.20;;;;;;5011927;28;20051;-76
2023/08/02 11:14:08;;;;;;;4.05;3.08;;;23.90;59.00;;;;;;5025366;28;20040;-78
2023/08/02 11:16:41;;;;;;;4.32;3.22;;;24.10;59.00;;;;;;5023637;28;20018;-79
2023/08/02 11:19:10;;;;;;;6.30;3.50;;;24.30;57.20;;;;;;5023473;28;20076;-80
2023/08/02 11:21:51;;;;;;;4.45;3.33;;;24.10;58.30;;;;;;5024876;28;20062;-78
2023/08/02 11:24:17;;;;;;;5.35;3.75;;;24.10;57.40;;;;;;5027965;28;20028;-77
2023/08/02 11:26:42;;;;;;;6.90;3.33;;;24.00;58.50;;;;;;5024141;28;20030;-77
2023/08/02 11:29:08;;;;;;;3.83;3.25;;;24.10;57.50;;;;;;5025021;28;20034;-78
2023/08/02 11:31:34;;;;;;;6.03;3.75;;;24.30;57.30;;;;;;5027214;28;20029;-77
2023/08/02 11:34:02;;;;;;;5.00;3.40;;;24.40;57.10;;;;;;5024082;28;20475;-79
2023/08/02 11:36:32;;;;;;;3.47;3.10;;;24.70;55.40;;;;;;5022878;28;20034;-79
2023/08/02 11:38:58;;;;;;;3.53;2.97;;;24.80;54.10;;;;;;5031091;28;20017;-79
2023/08/02 11:41:23;;;;;;;3.80;2.97;;;25.20;54.00;;;;;;5034088;28;20389;-79
2023/08/02 11:43:49;;;;;;;4.60;2.80;;;25.40;53.80;;;;;;5034180;28;20032;-76
2023/08/02 11:46:25;;;;;;;3.35;2.88;;;25.20;53.90;;;;;;5033975;28;20132;-76
2023/08/02 11:48:52;;;;;;;6.00;3.60;;;24.90;54.30;;;;;;5033953;28;20022;-76
2023/08/02 11:51:20;;;;;;;5.85;2.70;;;24.80;54.30;;;;;;5016010;28;20465;-76
2023/08/02 11:53:55;;;;;;;3.58;2.75;;;25.00;55.20;;;;;;5033853;28;20017;-76
2023/08/02 11:56:22;;;;;;;5.47;2.65;;;25.10;53.00;;;;;;5034708;28;20021;-77
2023/08/02 11:58:48;;;;;;;3.35;2.50;;;25.40;52.80;;;;;;5034262;28;20478;-76
2023/08/02 12:01:14;;;;;;;3.80;2.78;;;25.80;51.40;;;;;;5021424;28;20037;-76
2023/08/02 12:03:52;;;;;;;4.80;2.70;;;26.00;51.10;;;;;;5033677;28;20029;-76
2023/08/02 12:06:19;;;;;;;2.80;2.50;;;26.50;49.20;;;;;;5033731;28;20068;-76
2023/08/02 12:08:59;;;;;;;3.45;2.83;;;26.50;49.00;;;;;;5034797;28;20064;-77
2023/08/02 12:11:25;;;;;;;4.45;2.35;;;26.50;48.40;;;;;;5034411;28;20032;-72
2023/08/02 12:13:51;;;;;;;3.50;2.58;;;26.50;48.50;;;;;;5033899;28;20104;-73
2023/08/02 12:16:17;;;;;;;3.83;2.90;;;26.50;47.70;;;;;;5034307;28;20021;-75
2023/08/02 12:18:58;;;;;;;3.53;2.70;;;26.40;48.00;;;;;;5033975;28;20025;-76
2023/08/02 12:21:26;;;;;;;3.90;2.60;;;26.30;48.10;;;;;;5034030;28;20041;-73
2023/08/02 12:23:54;;;;;;;6.05;2.85;;;26.60;49.20;;;;;;5016903;28;20029;-75
2023/08/02 12:26:31;;;;;;;7.20;2.97;;;26.60;46.80;;;;;;5034018;28;20030;-75
2023/08/02 12:28:56;;;;;;;3.83;2.63;;;26.50;47.70;;;;;;5034023;28;20017;-78
2023/08/02 12:31:22;;;;;;;3.60;2.95;;;26.50;48.60;;;;;;5033845;28;20029;-74
2023/08/02 12:33:48;;;;;;;3.17;2.63;;;26.70;46.60;;;;;;5033760;28;20493;-76
2023/08/02 12:36:25;;;;;;;3.50;2.72;;;26.50;48.20;;;;;;5033327;28;20026;-77
2023/08/02 12:38:51;;;;;;;3.90;2.88;;;26.00;48.70;;;;;;5034510;28;20533;-79
2023/08/02 12:41:16;;;;;;;4.70;2.60;;;25.80;48.40;;;;;;5034199;28;20112;-81
2023/08/02 12:43:42;;;;;;;5.65;2.72;;;26.10;48.70;;;;;;5035536;28;20120;-80
2023/08/02 12:46:07;;;;;;;4.72;2.72;;;26.40;48.10;;;;;;5036221;28;20025;-81
2023/08/02 12:48:33;;;;;;;5.13;2.85;;;26.50;47.00;;;;;;5022764;28;20021;-80